Heswall, United Kingdom
Current Conditions -  °F | °C
As of 12:50 PM on Thursday 30 Oct 2014 (Local Time) from EGGP Reporting Station
Broken Clouds Broken Clouds  
Wind Chill: 17°   Ceiling: 2800
Heat Index: 17°   Visibility: 6mi
Dew Point: 14°   Wind: 8mph
Humidity: 82%   Direction: 190°S
Pressure: 29.94"   Gusts: NA
Location:  53.34°N, 3.1°W
Report Text: EGGP 301250Z 19007KT 9999 BKN028 17/14 Q1014
Loading
Personal Weather Stations






























Interactive Weather Map
Tropical Storm Tracking
New forecast layout! Learn more

10-Day Weather Forecast

Advertisements
Track Severe Weather on mobile